Bel Air Beach, Iowa
Current Conditions -  °F | °C
As of 1:15 AM on Friday 31 Oct 2014 (Local Time) from KSLB Reporting Station
Overcast Overcast  
Wind Chill: 22°   Ceiling: 2900
Heat Index: 34°   Visibility: 10mi
Dew Point: 21°   Wind: 21mph
Humidity: 60%   Direction: 350°N
Pressure: 30.41"   Gusts: 30mph
Location:  42.674°N, 95.1635°W
Report Text: KSLB 310615Z AUTO 35018G26KT 10SM OVC029 01/M06 A3041 RMK AO2
Loading
Personal Weather Stations






























Interactive Weather Map
Tropical Storm Tracking
New forecast layout! Learn more

10-Day Weather Forecast

Advertisements
Track Severe Weather on mobile